createdAt,value
2018-02-20T00:00:36.144Z,0
2018-02-20T00:01:16.698Z,0
2018-02-20T00:01:57.303Z,0
2018-02-20T00:02:37.839Z,0
2018-02-20T00:03:18.370Z,0
2018-02-20T00:03:58.940Z,0
2018-02-20T00:04:39.484Z,0
2018-02-20T00:05:20.059Z,0
2018-02-20T00:06:00.601Z,0
2018-02-20T00:06:41.224Z,0
2018-02-20T00:07:21.765Z,0
2018-02-20T00:08:02.330Z,0
2018-02-20T00:08:42.952Z,0
2018-02-20T00:09:23.472Z,0
2018-02-20T00:10:04.028Z,0
2018-02-20T00:10:44.582Z,0
2018-02-20T00:11:25.134Z,0
2018-02-20T00:12:05.704Z,0
2018-02-20T00:12:46.248Z,0
2018-02-20T00:13:26.814Z,0
2018-02-20T00:14:07.471Z,0
2018-02-20T00:14:48.073Z,0
2018-02-20T00:15:28.652Z,0
2018-02-20T00:16:09.217Z,0
2018-02-20T00:16:49.770Z,0
2018-02-20T00:17:30.336Z,0
2018-02-20T00:18:10.899Z,0
2018-02-20T00:18:51.450Z,0
2018-02-20T00:19:31.994Z,0
2018-02-20T00:20:12.561Z,0
2018-02-20T00:20:53.108Z,0
2018-02-20T00:21:33.650Z,0
2018-02-20T00:22:14.238Z,0
2018-02-20T00:22:54.803Z,0
2018-02-20T00:23:35.391Z,0
2018-02-20T00:24:15.932Z,0
2018-02-20T00:24:56.494Z,0
2018-02-20T00:25:37.044Z,0
2018-02-20T00:26:17.592Z,0
2018-02-20T00:26:58.146Z,0
2018-02-20T00:27:38.695Z,0
2018-02-20T00:28:19.244Z,0
2018-02-20T00:28:59.793Z,0
2018-02-20T00:29:40.352Z,0
2018-02-20T00:30:20.916Z,0
2018-02-20T00:31:01.481Z,0
2018-02-20T00:31:42.016Z,0
2018-02-20T00:32:22.575Z,0
2018-02-20T00:33:03.123Z,0
2018-02-20T00:33:43.681Z,0
2018-02-20T00:34:24.249Z,0
2018-02-20T00:35:04.802Z,0
2018-02-20T00:35:45.349Z,0
2018-02-20T00:36:25.914Z,0
2018-02-20T00:37:06.465Z,0
2018-02-20T00:37:47.049Z,0
2018-02-20T00:38:27.626Z,0
2018-02-20T00:39:08.145Z,0
2018-02-20T00:39:48.718Z,0
2018-02-20T00:40:29.281Z,0
2018-02-20T00:41:09.824Z,0
2018-02-20T00:41:50.379Z,0
2018-02-20T00:42:30.994Z,0
2018-02-20T00:43:11.488Z,0
2018-02-20T00:43:52.056Z,0
2018-02-20T00:44:32.607Z,0
2018-02-20T00:45:13.171Z,0
2018-02-20T00:45:53.734Z,0
2018-02-20T00:46:34.310Z,0
2018-02-20T00:47:14.878Z,0
2018-02-20T00:47:55.411Z,0
2018-02-20T00:48:35.956Z,0
2018-02-20T00:49:16.506Z,0
2018-02-20T00:49:57.066Z,0
2018-02-20T00:50:37.626Z,0
2018-02-20T00:51:18.153Z,0
2018-02-20T00:51:58.745Z,0
2018-02-20T00:52:39.285Z,0
2018-02-20T00:53:19.931Z,0
2018-02-20T00:54:00.469Z,0
2018-02-20T00:54:41.026Z,0
2018-02-20T00:55:21.562Z,0
2018-02-20T00:56:02.119Z,0
2018-02-20T00:56:42.662Z,0
2018-02-20T00:57:23.218Z,0
2018-02-20T00:58:03.766Z,0
2018-02-20T00:58:44.305Z,0
2018-02-20T00:59:24.866Z,0
2018-02-20T01:00:05.413Z,0
2018-02-20T01:00:45.966Z,0
2018-02-20T01:01:26.511Z,0
2018-02-20T01:02:07.053Z,0
2018-02-20T01:02:47.615Z,0
2018-02-20T01:03:28.198Z,0
2018-02-20T01:04:08.749Z,0
2018-02-20T01:04:49.299Z,0
2018-02-20T01:05:29.854Z,0
2018-02-20T01:06:10.406Z,0
2018-02-20T01:06:50.990Z,0
2018-02-20T01:07:31.499Z,0
2018-02-20T01:08:12.056Z,0
2018-02-20T01:08:52.666Z,0
2018-02-20T01:09:33.293Z,0
2018-02-20T01:10:13.879Z,0
2018-02-20T01:10:54.495Z,0
2018-02-20T01:11:34.993Z,0
2018-02-20T01:12:15.542Z,0
2018-02-20T01:12:56.107Z,0
2018-02-20T01:13:36.675Z,0
2018-02-20T01:14:17.245Z,0
2018-02-20T01:14:57.769Z,0
2018-02-20T01:15:38.315Z,0
2018-02-20T01:16:18.942Z,0
2018-02-20T01:16:59.488Z,0
2018-02-20T01:17:40.084Z,0
2018-02-20T01:18:20.654Z,0
2018-02-20T01:19:01.247Z,0
2018-02-20T01:19:41.784Z,0
2018-02-20T01:20:22.354Z,0
2018-02-20T01:21:02.919Z,0
2018-02-20T01:21:43.502Z,0
2018-02-20T01:22:24.038Z,0
2018-02-20T01:23:04.601Z,0
2018-02-20T01:23:45.147Z,0
2018-02-20T01:24:25.726Z,0
2018-02-20T01:25:06.305Z,0
2018-02-20T01:25:46.847Z,0
2018-02-20T01:26:27.404Z,0
2018-02-20T01:27:07.956Z,0
2018-02-20T01:27:48.498Z,0
2018-02-20T01:28:29.070Z,0
2018-02-20T01:29:09.629Z,0
2018-02-20T01:29:50.185Z,0
2018-02-20T01:30:30.755Z,0
2018-02-20T01:31:11.308Z,0
2018-02-20T01:31:51.907Z,0
2018-02-20T01:32:32.464Z,0
2018-02-20T01:33:13.020Z,0
2018-02-20T01:33:53.579Z,0
2018-02-20T01:34:34.127Z,0
2018-02-20T01:35:14.669Z,0
2018-02-20T01:35:55.209Z,0
2018-02-20T01:36:35.819Z,0
2018-02-20T01:37:16.359Z,0
2018-02-20T01:37:56.947Z,0
2018-02-20T01:38:37.494Z,0
2018-02-20T01:39:18.067Z,0
2018-02-20T01:39:58.642Z,0
2018-02-20T01:40:39.183Z,0
2018-02-20T01:41:19.758Z,0
2018-02-20T01:42:00.366Z,0
2018-02-20T01:42:40.921Z,0
2018-02-20T01:43:21.482Z,0
2018-02-20T01:44:02.042Z,0
2018-02-20T01:44:42.591Z,0
2018-02-20T01:45:23.151Z,0
2018-02-20T01:46:03.697Z,0
2018-02-20T01:46:44.237Z,0
2018-02-20T01:47:24.784Z,0
2018-02-20T01:48:05.331Z,0
2018-02-20T01:48:45.896Z,0
2018-02-20T01:49:26.456Z,0
2018-02-20T01:50:07.000Z,0
2018-02-20T01:50:47.558Z,0
2018-02-20T01:51:28.116Z,0
2018-02-20T01:52:08.667Z,0
2018-02-20T01:52:49.218Z,0
2018-02-20T01:53:29.764Z,0
2018-02-20T01:54:10.312Z,0
2018-02-20T01:54:50.865Z,0
2018-02-20T01:55:31.433Z,0
2018-02-20T01:56:11.973Z,0
2018-02-20T01:56:52.543Z,0
2018-02-20T01:57:33.094Z,0
2018-02-20T01:58:13.646Z,0
2018-02-20T01:58:54.195Z,0
2018-02-20T01:59:34.749Z,0
2018-02-20T02:00:15.299Z,0
2018-02-20T02:00:55.847Z,0
2018-02-20T02:01:36.386Z,0
2018-02-20T02:02:16.961Z,0
2018-02-20T02:02:57.517Z,0
2018-02-20T02:03:38.073Z,0
2018-02-20T02:04:18.623Z,0
2018-02-20T02:04:59.236Z,0
2018-02-20T02:05:39.782Z,0
2018-02-20T02:06:20.334Z,0
2018-02-20T02:07:00.884Z,0
2018-02-20T02:07:41.436Z,0
2018-02-20T02:08:22.000Z,0
2018-02-20T02:09:02.545Z,0
2018-02-20T02:09:43.093Z,0
2018-02-20T02:10:23.631Z,0
2018-02-20T02:11:04.178Z,0
2018-02-20T02:11:44.725Z,0
2018-02-20T02:12:25.286Z,0
2018-02-20T02:13:05.860Z,0
2018-02-20T02:13:46.402Z,0
2018-02-20T02:14:26.945Z,0
2018-02-20T02:15:07.491Z,0
2018-02-20T02:15:48.054Z,0
2018-02-20T02:16:28.606Z,0
2018-02-20T02:17:09.175Z,0
2018-02-20T02:17:49.746Z,0
2018-02-20T02:18:30.294Z,0
2018-02-20T02:19:10.830Z,0
2018-02-20T02:19:51.386Z,0
2018-02-20T02:20:31.927Z,0
2018-02-20T02:21:12.526Z,0
2018-02-20T02:21:53.096Z,0
2018-02-20T02:22:33.645Z,0
2018-02-20T02:23:14.255Z,0
2018-02-20T02:23:54.776Z,0
2018-02-20T02:24:35.323Z,0
2018-02-20T02:25:15.874Z,0
2018-02-20T02:25:56.436Z,0
2018-02-20T02:26:36.997Z,0
2018-02-20T02:27:17.547Z,0
2018-02-20T02:27:58.100Z,0
2018-02-20T02:28:38.633Z,0
2018-02-20T02:29:19.181Z,0
2018-02-20T02:29:59.729Z,0
2018-02-20T02:30:40.283Z,0
2018-02-20T02:31:20.832Z,0
2018-02-20T02:32:01.405Z,0
2018-02-20T02:32:41.976Z,0
2018-02-20T02:33:22.518Z,0
2018-02-20T02:34:03.069Z,0
2018-02-20T02:34:43.622Z,0
2018-02-20T02:35:24.173Z,0
2018-02-20T02:36:04.720Z,0
2018-02-20T02:36:45.271Z,0
2018-02-20T02:37:25.815Z,0
2018-02-20T02:38:06.355Z,0
2018-02-20T02:38:46.905Z,0
2018-02-20T02:39:27.490Z,0
2018-02-20T02:40:08.063Z,0
2018-02-20T02:40:48.621Z,0
2018-02-20T02:41:29.185Z,0
2018-02-20T02:42:09.736Z,0
2018-02-20T02:42:50.281Z,0
2018-02-20T02:43:30.834Z,0
2018-02-20T02:44:11.396Z,0
2018-02-20T02:44:51.955Z,0
2018-02-20T02:45:32.520Z,0
2018-02-20T02:46:13.062Z,0
2018-02-20T02:46:53.619Z,0
2018-02-20T02:47:34.178Z,0
2018-02-20T02:48:14.730Z,0
2018-02-20T02:48:55.282Z,0
2018-02-20T02:49:35.838Z,0
2018-02-20T02:50:16.426Z,0
2018-02-20T02:50:57.002Z,0
2018-02-20T02:51:37.554Z,0
2018-02-20T02:52:18.116Z,0
2018-02-20T02:52:58.665Z,0
2018-02-20T02:53:39.240Z,0
2018-02-20T02:54:19.783Z,0
2018-02-20T02:55:00.358Z,0
2018-02-20T02:55:40.919Z,0
2018-02-20T02:56:21.472Z,0
2018-02-20T02:57:02.014Z,0
2018-02-20T02:57:42.572Z,0
2018-02-20T02:58:23.157Z,0
2018-02-20T02:59:03.686Z,0
2018-02-20T02:59:44.224Z,0
2018-02-20T03:00:24.778Z,0
2018-02-20T03:01:05.321Z,0
2018-02-20T03:01:45.878Z,0
2018-02-20T03:02:26.428Z,0
2018-02-20T03:03:07.000Z,0
2018-02-20T03:03:47.546Z,0
2018-02-20T03:04:28.094Z,0
2018-02-20T03:05:08.668Z,0
2018-02-20T03:05:49.218Z,0
2018-02-20T03:06:29.761Z,0
2018-02-20T03:07:10.327Z,0
2018-02-20T03:07:50.841Z,0
2018-02-20T03:08:31.386Z,0
2018-02-20T03:09:11.944Z,0
2018-02-20T03:09:52.548Z,0
2018-02-20T03:10:33.109Z,0
2018-02-20T03:11:13.649Z,0
2018-02-20T03:11:54.221Z,0
2018-02-20T03:12:34.776Z,0
2018-02-20T03:13:15.323Z,0
2018-02-20T03:13:55.874Z,0
2018-02-20T03:14:36.409Z,0
2018-02-20T03:15:16.966Z,0
2018-02-20T03:15:57.519Z,0
2018-02-20T03:16:38.081Z,0
2018-02-20T03:17:18.653Z,0
2018-02-20T03:17:59.246Z,0
2018-02-20T03:18:39.799Z,0
2018-02-20T03:19:20.375Z,0
2018-02-20T03:20:00.915Z,0
2018-02-20T03:20:41.465Z,0
2018-02-20T03:21:22.031Z,0
2018-02-20T03:22:02.585Z,0
2018-02-20T03:22:43.123Z,0
2018-02-20T03:23:23.680Z,0
2018-02-20T03:24:04.240Z,0
2018-02-20T03:24:44.789Z,0
2018-02-20T03:25:25.344Z,0
2018-02-20T03:26:05.899Z,0
2018-02-20T03:26:46.445Z,0
2018-02-20T03:27:26.994Z,0
2018-02-20T03:28:07.547Z,0
2018-02-20T03:28:48.099Z,0
2018-02-20T03:29:28.656Z,0
2018-02-20T03:30:09.210Z,0
2018-02-20T03:30:49.758Z,0
2018-02-20T03:31:30.304Z,0
2018-02-20T03:32:10.842Z,0
2018-02-20T03:32:51.389Z,0
2018-02-20T03:33:31.947Z,0
2018-02-20T03:34:12.501Z,0
2018-02-20T03:34:53.084Z,0
2018-02-20T03:35:33.638Z,0
2018-02-20T03:36:14.318Z,0
2018-02-20T03:36:54.888Z,0
2018-02-20T03:37:35.435Z,0
2018-02-20T03:38:15.987Z,0
2018-02-20T03:38:56.544Z,0
2018-02-20T03:39:37.090Z,0
2018-02-20T03:40:17.659Z,0
2018-02-20T03:40:58.196Z,0
2018-02-20T03:41:38.749Z,0
2018-02-20T03:42:19.346Z,0
2018-02-20T03:42:59.910Z,0
2018-02-20T03:43:40.473Z,0
2018-02-20T03:44:21.046Z,0
2018-02-20T03:45:01.572Z,0
2018-02-20T03:45:42.121Z,0
2018-02-20T03:46:22.672Z,0
2018-02-20T03:47:03.227Z,0
2018-02-20T03:47:43.820Z,0
2018-02-20T03:48:24.385Z,0
2018-02-20T03:49:04.930Z,0
2018-02-20T03:49:45.690Z,0
2018-02-20T03:50:26.242Z,0
2018-02-20T03:51:06.814Z,0
2018-02-20T03:51:47.363Z,0
2018-02-20T03:52:27.923Z,0
2018-02-20T03:53:08.443Z,0
2018-02-20T03:53:49.082Z,0
2018-02-20T03:54:29.575Z,0
2018-02-20T03:55:10.132Z,0
2018-02-20T03:55:50.692Z,0
2018-02-20T03:56:31.273Z,0
2018-02-20T03:57:11.853Z,0
2018-02-20T03:57:52.397Z,0
2018-02-20T03:58:32.979Z,0
2018-02-20T03:59:13.604Z,0
2018-02-20T03:59:54.153Z,0
2018-02-20T04:00:34.690Z,0
2018-02-20T04:01:15.272Z,0
2018-02-20T04:01:55.789Z,0
2018-02-20T04:02:36.472Z,0
2018-02-20T04:03:17.331Z,0
2018-02-20T04:03:57.975Z,0
2018-02-20T04:04:38.523Z,0
2018-02-20T04:05:19.081Z,0
2018-02-20T04:05:59.729Z,0
2018-02-20T04:06:40.361Z,0
2018-02-20T04:07:20.912Z,0
2018-02-20T04:08:01.458Z,0
2018-02-20T04:08:42.005Z,0
2018-02-20T04:09:22.563Z,0
2018-02-20T04:10:03.114Z,0
2018-02-20T04:10:43.704Z,0
2018-02-20T04:11:24.276Z,0
2018-02-20T04:12:05.052Z,0
2018-02-20T04:12:45.813Z,0
2018-02-20T04:13:26.357Z,0
2018-02-20T04:14:07.154Z,0
2018-02-20T04:14:47.731Z,0
2018-02-20T04:15:28.268Z,0
2018-02-20T04:16:08.818Z,0
2018-02-20T04:16:49.495Z,0
2018-02-20T04:17:30.054Z,0
2018-02-20T04:18:10.587Z,0
2018-02-20T04:18:51.130Z,0
2018-02-20T04:19:31.748Z,0
2018-02-20T04:20:12.306Z,0
2018-02-20T04:20:52.868Z,0
2018-02-20T04:21:33.403Z,0
2018-02-20T04:22:13.959Z,0
2018-02-20T04:22:54.515Z,0
2018-02-20T04:23:35.054Z,0
2018-02-20T04:24:15.612Z,0
2018-02-20T04:24:56.172Z,0
2018-02-20T04:25:36.725Z,0
2018-02-20T04:26:17.279Z,0
2018-02-20T04:26:57.839Z,0
2018-02-20T04:27:38.398Z,0
2018-02-20T04:28:18.963Z,0
2018-02-20T04:28:59.524Z,0
2018-02-20T04:29:40.076Z,0
2018-02-20T04:30:20.638Z,0
2018-02-20T04:31:01.221Z,0
2018-02-20T04:31:41.800Z,0
2018-02-20T04:32:22.380Z,0
2018-02-20T04:33:03.034Z,0
2018-02-20T04:33:43.630Z,0
2018-02-20T04:34:24.273Z,0
2018-02-20T04:35:04.859Z,0
2018-02-20T04:35:45.377Z,0
2018-02-20T04:36:25.920Z,0
2018-02-20T04:37:06.466Z,0
2018-02-20T04:37:46.998Z,0
2018-02-20T04:38:27.553Z,0
2018-02-20T04:39:08.152Z,0
2018-02-20T04:39:48.826Z,0
2018-02-20T04:40:30.028Z,0
2018-02-20T04:41:10.952Z,0
2018-02-20T04:41:52.388Z,0
2018-02-20T04:42:33.287Z,0
2018-02-20T04:43:14.195Z,0
2018-02-20T04:43:54.754Z,0
2018-02-20T04:44:35.311Z,0
2018-02-20T04:45:15.853Z,0
2018-02-20T04:45:56.422Z,0
2018-02-20T04:46:36.976Z,0
2018-02-20T04:47:17.531Z,0
2018-02-20T04:47:58.075Z,0
2018-02-20T04:48:38.642Z,0
2018-02-20T04:49:19.178Z,0
2018-02-20T04:49:59.716Z,0
2018-02-20T04:50:40.254Z,0
2018-02-20T04:51:20.852Z,0
2018-02-20T04:52:01.359Z,0
2018-02-20T04:52:41.959Z,0
2018-02-20T04:53:22.508Z,0
2018-02-20T04:54:03.116Z,0
2018-02-20T04:54:43.910Z,0
2018-02-20T04:55:24.283Z,0
2018-02-20T04:56:04.821Z,0
2018-02-20T04:56:45.398Z,0
2018-02-20T04:57:26.045Z,0
2018-02-20T04:58:06.654Z,0
2018-02-20T04:58:47.198Z,0
2018-02-20T04:59:27.746Z,0
2018-02-20T05:00:08.310Z,0
2018-02-20T05:00:48.860Z,0
2018-02-20T05:01:29.457Z,0
2018-02-20T05:02:10.022Z,0
2018-02-20T05:02:50.580Z,0
2018-02-20T05:03:31.129Z,0
2018-02-20T05:04:11.698Z,0
2018-02-20T05:04:52.286Z,0
2018-02-20T05:05:32.909Z,0
2018-02-20T05:06:13.401Z,0
2018-02-20T05:06:53.956Z,0
2018-02-20T05:07:34.509Z,0
2018-02-20T05:08:15.085Z,0
2018-02-20T05:08:55.621Z,0
2018-02-20T05:09:36.199Z,0
2018-02-20T05:10:16.750Z,0
2018-02-20T05:10:57.292Z,0
2018-02-20T05:11:37.841Z,0
2018-02-20T05:12:18.408Z,0
2018-02-20T05:12:58.976Z,0
2018-02-20T05:13:39.525Z,0
2018-02-20T05:14:20.074Z,0
2018-02-20T05:15:00.631Z,0
2018-02-20T05:15:41.175Z,0
2018-02-20T05:16:21.759Z,0
2018-02-20T05:17:02.341Z,0
2018-02-20T05:17:42.908Z,0
2018-02-20T05:18:23.426Z,0
2018-02-20T05:19:04.010Z,0
2018-02-20T05:19:44.554Z,0
2018-02-20T05:20:25.090Z,0
2018-02-20T05:21:05.639Z,0
2018-02-20T05:21:46.202Z,0
2018-02-20T05:22:26.764Z,0
2018-02-20T05:23:07.315Z,0
2018-02-20T05:23:47.864Z,0
2018-02-20T05:24:28.421Z,0
2018-02-20T05:25:08.977Z,0
2018-02-20T05:25:49.529Z,0
2018-02-20T05:26:30.096Z,0
2018-02-20T05:27:10.648Z,0
2018-02-20T05:27:51.212Z,0
2018-02-20T05:28:31.763Z,0
2018-02-20T05:29:12.299Z,0
2018-02-20T05:29:52.849Z,0
2018-02-20T05:30:33.402Z,0
2018-02-20T05:31:13.960Z,0
2018-02-20T05:31:54.524Z,0
2018-02-20T05:32:35.066Z,0
2018-02-20T05:33:15.604Z,0
2018-02-20T05:33:56.155Z,0
2018-02-20T05:34:36.708Z,0
2018-02-20T05:35:17.319Z,0
2018-02-20T05:35:57.997Z,0
2018-02-20T05:36:38.548Z,0
2018-02-20T05:37:19.096Z,0
2018-02-20T05:37:59.660Z,0
2018-02-20T05:38:40.237Z,0
2018-02-20T05:39:20.820Z,0
2018-02-20T05:40:01.382Z,0
2018-02-20T05:40:41.946Z,0
2018-02-20T05:41:22.530Z,0
2018-02-20T05:42:03.107Z,0
2018-02-20T05:42:43.688Z,0
2018-02-20T05:43:24.253Z,0
2018-02-20T05:44:04.871Z,0
2018-02-20T05:44:45.422Z,0
2018-02-20T05:45:25.991Z,0
2018-02-20T05:46:06.546Z,0
2018-02-20T05:46:47.107Z,0
2018-02-20T05:47:27.664Z,0
2018-02-20T05:48:08.205Z,0
2018-02-20T05:48:48.763Z,0
2018-02-20T05:49:29.354Z,0
2018-02-20T05:50:09.878Z,0
2018-02-20T05:50:50.415Z,0
2018-02-20T05:51:30.982Z,0
2018-02-20T05:52:11.539Z,0
2018-02-20T05:52:52.096Z,0
2018-02-20T05:53:32.670Z,0
2018-02-20T05:54:13.184Z,0
2018-02-20T05:54:53.739Z,0
2018-02-20T05:55:34.282Z,0
2018-02-20T05:56:14.830Z,0
2018-02-20T05:56:55.379Z,0
2018-02-20T05:57:35.970Z,0
2018-02-20T05:58:16.525Z,0
2018-02-20T05:58:57.228Z,0
2018-02-20T05:59:37.794Z,0
2018-02-20T06:00:18.354Z,0
2018-02-20T06:00:58.887Z,0
2018-02-20T06:01:39.537Z,0
2018-02-20T06:02:20.108Z,0
2018-02-20T06:03:00.664Z,0
2018-02-20T06:03:41.226Z,0
2018-02-20T06:04:21.787Z,0
2018-02-20T06:05:02.353Z,0
2018-02-20T06:05:42.966Z,0
2018-02-20T06:06:23.523Z,0
2018-02-20T06:07:04.074Z,0
2018-02-20T06:07:44.622Z,0
2018-02-20T06:08:25.179Z,0
2018-02-20T06:09:05.747Z,0
2018-02-20T06:09:46.298Z,0
2018-02-20T06:10:26.846Z,0
2018-02-20T06:11:07.400Z,0
2018-02-20T06:11:47.963Z,0
2018-02-20T06:12:28.514Z,0
2018-02-20T06:13:09.095Z,0
2018-02-20T06:13:49.635Z,0
2018-02-20T06:14:30.198Z,0
2018-02-20T06:15:10.751Z,0
2018-02-20T06:15:51.321Z,0
2018-02-20T06:16:31.869Z,0
2018-02-20T06:17:12.430Z,0
2018-02-20T06:17:52.974Z,0
2018-02-20T06:18:33.533Z,5
2018-02-20T06:19:14.096Z,5
2018-02-20T06:19:54.677Z,5
2018-02-20T06:20:40.106Z,5
2018-02-20T06:21:20.668Z,5
2018-02-20T06:22:01.217Z,5
2018-02-20T06:22:41.756Z,5
2018-02-20T06:23:22.304Z,5
2018-02-20T06:24:02.886Z,5
2018-02-20T06:24:43.449Z,5
2018-02-20T06:25:23.998Z,10
2018-02-20T06:26:04.554Z,10
2018-02-20T06:26:45.125Z,10
2018-02-20T06:27:25.678Z,10
2018-02-20T06:28:06.226Z,10
2018-02-20T06:28:46.846Z,10
2018-02-20T06:29:27.392Z,10
2018-02-20T06:30:07.944Z,10
2018-02-20T06:30:48.486Z,10
2018-02-20T06:31:29.038Z,10
2018-02-20T06:32:09.652Z,15
2018-02-20T06:32:50.193Z,15
2018-02-20T06:33:30.744Z,15
2018-02-20T06:34:11.294Z,15
2018-02-20T06:34:51.853Z,15
2018-02-20T06:35:32.413Z,15
2018-02-20T06:36:12.958Z,15
2018-02-20T06:36:53.522Z,15
2018-02-20T06:37:34.113Z,20
2018-02-20T06:38:14.650Z,20
2018-02-20T06:38:55.345Z,20
2018-02-20T06:39:35.919Z,20
2018-02-20T06:40:16.479Z,20
2018-02-20T06:40:57.036Z,25
2018-02-20T06:41:37.596Z,25
2018-02-20T06:42:18.155Z,25
2018-02-20T06:42:58.731Z,30
2018-02-20T06:43:39.288Z,30
2018-02-20T06:44:19.842Z,30
2018-02-20T06:45:00.383Z,35
2018-02-20T06:45:40.936Z,35
2018-02-20T06:46:21.493Z,35
2018-02-20T06:47:02.044Z,35
2018-02-20T06:47:42.598Z,35
2018-02-20T06:48:23.156Z,35
2018-02-20T06:49:03.690Z,35
2018-02-20T06:49:44.236Z,35
2018-02-20T06:50:24.788Z,40
2018-02-20T06:51:05.350Z,40
2018-02-20T06:51:45.902Z,40
2018-02-20T06:52:26.456Z,40
2018-02-20T06:53:07.003Z,45
2018-02-20T06:53:47.605Z,45
2018-02-20T06:54:28.162Z,45
2018-02-20T06:55:08.718Z,45
2018-02-20T06:55:49.274Z,45
2018-02-20T06:56:29.908Z,45
2018-02-20T06:57:10.400Z,50
2018-02-20T06:57:50.998Z,50
2018-02-20T06:58:31.551Z,50
2018-02-20T06:59:12.092Z,50
2018-02-20T06:59:52.649Z,50
2018-02-20T07:00:33.214Z,50
2018-02-20T07:01:13.769Z,55
2018-02-20T07:01:54.323Z,55
2018-02-20T07:02:34.908Z,55
2018-02-20T07:03:15.448Z,55
2018-02-20T07:03:55.986Z,55
2018-02-20T07:04:36.548Z,60
2018-02-20T07:05:17.163Z,60
2018-02-20T07:05:57.716Z,60
2018-02-20T07:06:38.265Z,60
2018-02-20T07:07:18.819Z,65
2018-02-20T07:07:59.403Z,65
2018-02-20T07:08:40.002Z,65
2018-02-20T07:09:20.571Z,70
2018-02-20T07:10:01.123Z,70
2018-02-20T07:10:41.675Z,70
2018-02-20T07:11:22.225Z,70
2018-02-20T07:12:02.786Z,70
2018-02-20T07:12:43.351Z,75
2018-02-20T07:13:23.932Z,75
2018-02-20T07:14:04.484Z,75
2018-02-20T07:14:45.038Z,75
2018-02-20T07:15:25.595Z,75
2018-02-20T07:16:06.145Z,80
2018-02-20T07:16:46.720Z,80
2018-02-20T07:17:27.288Z,80
2018-02-20T07:18:07.844Z,85
2018-02-20T07:18:48.475Z,85
2018-02-20T07:19:28.981Z,85
2018-02-20T07:20:09.553Z,85
2018-02-20T07:20:50.153Z,90
2018-02-20T07:21:30.707Z,90
2018-02-20T07:22:11.276Z,90
2018-02-20T07:22:51.825Z,90
2018-02-20T07:23:32.423Z,90
2018-02-20T07:24:12.981Z,95
2018-02-20T07:24:53.538Z,95
2018-02-20T07:25:34.112Z,95
2018-02-20T07:26:14.712Z,95
2018-02-20T07:26:55.364Z,100
2018-02-20T07:27:35.930Z,100
2018-02-20T07:28:16.491Z,100
2018-02-20T07:28:57.044Z,100
2018-02-20T07:29:37.631Z,100
2018-02-20T07:30:18.171Z,105
2018-02-20T07:30:58.818Z,105
2018-02-20T07:31:39.427Z,105
2018-02-20T07:32:20.196Z,105
2018-02-20T07:33:00.744Z,105
2018-02-20T07:33:41.312Z,105
2018-02-20T07:34:21.862Z,110
2018-02-20T07:35:02.414Z,110
2018-02-20T07:35:42.970Z,110
2018-02-20T07:36:23.515Z,110
2018-02-20T07:37:04.063Z,110
2018-02-20T07:37:44.644Z,110
2018-02-20T07:38:25.228Z,110
2018-02-20T07:39:05.717Z,110
2018-02-20T07:39:46.261Z,110
2018-02-20T07:40:26.860Z,110
2018-02-20T07:41:08.081Z,110
2018-02-20T07:41:48.639Z,110
2018-02-20T07:42:29.570Z,115
2018-02-20T07:43:10.224Z,115
2018-02-20T07:43:50.788Z,115
2018-02-20T07:44:31.397Z,115
2018-02-20T07:45:11.927Z,115
2018-02-20T07:45:52.491Z,115
2018-02-20T07:46:33.126Z,115
2018-02-20T07:47:13.671Z,110
2018-02-20T07:47:54.206Z,110
2018-02-20T07:48:34.765Z,115
2018-02-20T07:49:15.294Z,115
2018-02-20T07:49:55.842Z,115
2018-02-20T07:50:36.423Z,115
2018-02-20T07:51:16.971Z,115
2018-02-20T07:51:57.524Z,115
2018-02-20T07:52:38.079Z,115
2018-02-20T07:53:18.629Z,120
2018-02-20T07:53:59.266Z,115
2018-02-20T07:54:40.265Z,115
2018-02-20T07:55:21.664Z,115
2018-02-20T07:56:02.783Z,110
2018-02-20T07:56:43.450Z,110
2018-02-20T07:57:24.167Z,110
2018-02-20T07:58:04.838Z,115
2018-02-20T07:58:46.036Z,115
2018-02-20T07:59:27.089Z,115
2018-02-20T08:00:08.188Z,120
2018-02-20T08:00:48.839Z,120
2018-02-20T08:01:29.481Z,115
2018-02-20T08:02:10.087Z,120
2018-02-20T08:02:50.868Z,125
2018-02-20T08:03:31.869Z,130
2018-02-20T08:04:13.320Z,130
2018-02-20T08:04:54.329Z,125
2018-02-20T08:05:35.193Z,125
2018-02-20T08:06:15.738Z,130
2018-02-20T08:06:56.295Z,125
2018-02-20T08:07:36.842Z,125
2018-02-20T08:08:17.393Z,130
2018-02-20T08:08:58.042Z,130
2018-02-20T08:09:38.781Z,135
2018-02-20T08:10:20.050Z,135
2018-02-20T08:11:01.035Z,140
2018-02-20T08:11:41.571Z,145
2018-02-20T08:12:22.211Z,145
2018-02-20T08:13:02.933Z,150
2018-02-20T08:13:43.496Z,155
2018-02-20T08:14:24.087Z,185
2018-02-20T08:15:05.168Z,255
2018-02-20T08:15:46.316Z,450
2018-02-20T08:16:27.407Z,545
2018-02-20T08:17:09.203Z,600
2018-02-20T08:17:49.981Z,525
2018-02-20T08:18:32.295Z,540
2018-02-20T08:19:12.781Z,575
2018-02-20T08:19:54.250Z,640
2018-02-20T08:20:34.820Z,625
2018-02-20T08:21:15.412Z,580
2018-02-20T08:21:55.983Z,550
2018-02-20T08:22:36.540Z,390
2018-02-20T08:23:17.097Z,600
2018-02-20T08:23:57.701Z,650
2018-02-20T08:24:38.416Z,630
2018-02-20T08:25:18.971Z,645
2018-02-20T08:25:59.533Z,665
2018-02-20T08:26:40.098Z,680
2018-02-20T08:27:20.665Z,690
2018-02-20T08:28:01.244Z,635
2018-02-20T08:28:41.774Z,460
2018-02-20T08:29:22.672Z,635
2018-02-20T08:30:03.227Z,690
2018-02-20T08:30:43.767Z,695
2018-02-20T08:31:24.349Z,660
2018-02-20T08:32:05.149Z,620
2018-02-20T08:32:46.020Z,685
2018-02-20T08:33:26.775Z,695
2018-02-20T08:34:07.333Z,705
2018-02-20T08:34:47.969Z,640
2018-02-20T08:35:28.532Z,705
2018-02-20T08:36:09.090Z,725
2018-02-20T08:36:49.691Z,290
2018-02-20T08:37:30.585Z,500
2018-02-20T08:38:11.126Z,630
2018-02-20T08:38:52.442Z,620
2018-02-20T08:39:33.011Z,705
2018-02-20T08:40:13.605Z,680
2018-02-20T08:40:54.156Z,650
2018-02-20T08:41:34.751Z,620
2018-02-20T08:42:15.352Z,660
2018-02-20T08:42:56.108Z,695
2018-02-20T08:43:36.671Z,720
2018-02-20T08:44:17.381Z,690
2018-02-20T08:44:57.920Z,700
2018-02-20T08:45:38.466Z,720
2018-02-20T08:46:19.019Z,690
2018-02-20T08:46:59.565Z,725
2018-02-20T08:47:40.128Z,705
2018-02-20T08:48:20.700Z,685
2018-02-20T08:49:01.251Z,670
2018-02-20T08:49:41.877Z,720
2018-02-20T08:50:22.443Z,720
2018-02-20T08:51:03.091Z,650
2018-02-20T08:51:43.638Z,660
2018-02-20T08:52:24.626Z,700
2018-02-20T08:53:05.325Z,675
2018-02-20T08:53:49.199Z,675
2018-02-20T08:54:31.180Z,690
2018-02-20T08:55:12.323Z,710
2018-02-20T08:55:53.964Z,705
2018-02-20T08:56:35.083Z,685
2018-02-20T08:57:15.654Z,690
2018-02-20T08:57:56.201Z,700
2018-02-20T08:58:36.767Z,690
2018-02-20T08:59:17.337Z,690
2018-02-20T08:59:57.858Z,695
2018-02-20T09:00:38.418Z,700
2018-02-20T09:01:18.973Z,675
2018-02-20T09:01:59.532Z,645
2018-02-20T09:02:40.111Z,690
2018-02-20T09:03:20.648Z,705
2018-02-20T09:04:01.222Z,730
2018-02-20T09:04:41.776Z,720
2018-02-20T09:05:22.333Z,695
2018-02-20T09:06:02.900Z,675
2018-02-20T09:06:43.450Z,640
2018-02-20T09:07:24.023Z,640
2018-02-20T09:08:04.580Z,590
2018-02-20T09:08:45.125Z,485
2018-02-20T09:09:25.681Z,370
2018-02-20T09:10:06.252Z,290
2018-02-20T09:10:46.813Z,270
2018-02-20T09:11:27.375Z,260
2018-02-20T09:12:07.939Z,245
2018-02-20T09:12:48.536Z,235
2018-02-20T09:13:29.169Z,230
2018-02-20T09:14:09.734Z,230
2018-02-20T09:14:50.298Z,220
2018-02-20T09:15:30.851Z,210
2018-02-20T09:16:11.409Z,205
2018-02-20T09:16:51.974Z,200
2018-02-20T09:17:32.547Z,195
2018-02-20T09:18:13.097Z,195
2018-02-20T09:18:53.669Z,190
2018-02-20T09:19:34.348Z,185
2018-02-20T09:20:14.878Z,180
2018-02-20T09:20:55.450Z,175
2018-02-20T09:21:36.093Z,175
2018-02-20T09:22:16.678Z,175
2018-02-20T09:22:57.218Z,165
2018-02-20T09:23:37.767Z,160
2018-02-20T09:24:18.495Z,155
2018-02-20T09:24:59.073Z,150
2018-02-20T09:25:39.650Z,145
2018-02-20T09:26:20.386Z,145
2018-02-20T09:27:00.970Z,140
2018-02-20T09:27:41.959Z,140
2018-02-20T09:28:23.278Z,135
2018-02-20T09:29:04.337Z,130
2018-02-20T09:29:45.106Z,125
2018-02-20T09:30:26.006Z,120
2018-02-20T09:31:06.682Z,120
2018-02-20T09:31:47.604Z,115
2018-02-20T09:32:28.265Z,115
2018-02-20T09:33:08.817Z,110
2018-02-20T09:33:49.666Z,110
2018-02-20T09:34:30.278Z,110
2018-02-20T09:35:10.826Z,110
2018-02-20T09:35:51.390Z,105
2018-02-20T09:36:31.951Z,105
2018-02-20T09:37:12.505Z,100
2018-02-20T09:37:53.083Z,105
2018-02-20T09:38:33.667Z,95
2018-02-20T09:39:14.221Z,95
2018-02-20T09:39:54.773Z,95
2018-02-20T09:40:35.601Z,95
2018-02-20T09:41:16.530Z,95
2018-02-20T09:41:57.328Z,95
2018-02-20T09:42:38.320Z,95
2018-02-20T09:43:18.880Z,95
2018-02-20T09:43:59.447Z,95
2018-02-20T09:44:40.037Z,95
2018-02-20T09:45:20.732Z,100
2018-02-20T09:46:01.277Z,100
2018-02-20T09:46:41.826Z,100
2018-02-20T09:47:22.385Z,100
2018-02-20T09:48:03.026Z,105